Time;durP1;ratioP1;P1;durP2;ratioP2;P2;SDS_P1;SDS_P2;PMS_P1;PMS_P2;Temp;Humidity;BMP_temperature;BMP_pressure;BME280_temperature;BME280_humidity;BME280_pressure;Samples;Min_cycle;Max_cycle;Signal;HPM_P1;HPM_P2
2023/03/31 00:02:13;;;;;;;15.02;8.48;;;;;;;;;;4867931;29;20134;-95
2023/03/31 00:04:51;;;;;;;10.18;5.63;;;;;;;;;;4889797;29;20037;-94
2023/03/31 00:07:20;;;;;;;7.07;4.05;;;;;;;;;;4867763;29;20053;-94
2023/03/31 00:10:01;;;;;;;7.05;3.42;;;;;;;;;;4867418;29;20025;-94
2023/03/31 00:12:28;;;;;;;8.63;3.67;;;;;;;;;;4878461;29;20097;-94
2023/03/31 00:14:54;;;;;;;5.88;3.10;;;;;;;;;;4865008;29;20077;-94
2023/03/31 00:17:20;;;;;;;5.80;2.67;;;;;;;;;;4860810;29;20105;-94
2023/03/31 00:19:50;;;;;;;3.80;2.22;;;;;;;;;;4866588;29;20040;-93
2023/03/31 00:22:21;;;;;;;4.15;2.08;;;;;;;;;;4855929;29;20048;-94
2023/03/31 00:35:51;;;;;;;3.85;2.05;;;;;;;;;;4897585;23;20887;-94
2023/03/31 00:38:20;;;;;;;4.23;2.13;;;;;;;;;;4869165;29;20073;-96
2023/03/31 00:40:52;;;;;;;4.88;2.38;;;;;;;;;;4868419;29;20120;-95
2023/03/31 00:43:35;;;;;;;4.25;1.70;;;;;;;;;;4869089;29;20060;-95
2023/03/31 00:46:21;;;;;;;3.70;2.00;;;;;;;;;;4883142;29;20033;-96
2023/03/31 00:51:48;;;;;;;2.80;1.63;;;;;;;;;;4885826;29;20044;-96
2023/03/31 00:54:14;;;;;;;3.05;1.70;;;;;;;;;;4869719;29;20053;-95
2023/03/31 00:57:06;;;;;;;3.60;1.80;;;;;;;;;;4868243;29;20025;-96
2023/03/31 00:59:37;;;;;;;6.13;1.58;;;;;;;;;;4794517;29;20059;-94
2023/03/31 01:02:07;;;;;;;5.90;1.95;;;;;;;;;;4868337;29;20498;-96
2023/03/31 01:04:40;;;;;;;4.40;1.60;;;;;;;;;;4869300;29;20025;-95
2023/03/31 01:07:29;;;;;;;4.85;1.50;;;;;;;;;;4868176;29;20116;-95
2023/03/31 01:09:58;;;;;;;3.97;1.50;;;;;;;;;;4866632;29;20033;-96
2023/03/31 01:12:26;;;;;;;5.03;1.55;;;;;;;;;;4879318;29;20049;-95
2023/03/31 01:15:04;;;;;;;3.25;2.00;;;;;;;;;;4875689;29;20033;-93
2023/03/31 01:17:59;;;;;;;4.28;1.60;;;;;;;;;;4870996;29;20047;-95
2023/03/31 01:20:28;;;;;;;4.72;1.70;;;;;;;;;;4865846;29;20075;-95
2023/03/31 01:23:22;;;;;;;3.97;1.50;;;;;;;;;;4849594;29;20041;-96
2023/03/31 01:26:16;;;;;;;4.18;1.77;;;;;;;;;;4850971;29;20105;-96
2023/03/31 01:29:15;;;;;;;3.65;2.15;;;;;;;;;;4853017;29;20067;-93
2023/03/31 01:31:53;;;;;;;5.88;2.47;;;;;;;;;;4851261;29;20040;-95
2023/03/31 01:34:43;;;;;;;4.97;2.25;;;;;;;;;;4850441;29;20057;-93
2023/03/31 01:37:28;;;;;;;4.40;2.20;;;;;;;;;;4849401;29;20053;-96
2023/03/31 01:40:09;;;;;;;6.68;2.40;;;;;;;;;;4850380;29;20076;-95
2023/03/31 01:42:44;;;;;;;5.82;2.40;;;;;;;;;;4851953;29;20034;-96
2023/03/31 01:45:32;;;;;;;4.72;2.17;;;;;;;;;;4847648;29;20025;-95
2023/03/31 01:51:30;;;;;;;6.00;2.50;;;;;;;;;;4869972;29;20502;-95
2023/03/31 01:54:24;;;;;;;5.78;2.58;;;;;;;;;;4867964;29;20093;-96
2023/03/31 01:57:01;;;;;;;4.68;2.67;;;;;;;;;;4883705;29;20037;-95
2023/03/31 02:00:07;;;;;;;;;;;;;;;;;;;;;
2023/03/31 02:02:42;;;;;;;7.07;3.00;;;;;;;;;;4857958;29;20091;-96
2023/03/31 02:05:14;;;;;;;6.90;2.92;;;;;;;;;;4867065;29;20036;-96
2023/03/31 02:07:47;;;;;;;8.02;3.15;;;;;;;;;;4851887;29;20029;-96
2023/03/31 02:10:30;;;;;;;;;;;;;;;;;;;;;
2023/03/31 02:16:10;;;;;;;6.38;3.38;;;;;;;;;;4884650;29;20038;-95
2023/03/31 02:18:40;;;;;;;6.65;3.33;;;;;;;;;;4874117;29;20085;-94
2023/03/31 02:21:15;;;;;;;7.40;3.00;;;;;;;;;;4879476;29;20045;-96
2023/03/31 02:24:03;;;;;;;4.70;2.78;;;;;;;;;;4866745;29;20038;-95
2023/03/31 02:26:55;;;;;;;5.65;2.70;;;;;;;;;;4848583;29;20495;-95
2023/03/31 02:29:27;;;;;;;4.32;2.50;;;;;;;;;;4830116;29;20153;-96
2023/03/31 02:32:02;;;;;;;6.05;2.88;;;;;;;;;;4829003;29;20037;-96
2023/03/31 02:34:31;;;;;;;6.07;2.80;;;;;;;;;;4856632;29;20056;-96
2023/03/31 02:37:05;;;;;;;5.25;2.97;;;;;;;;;;4867539;29;20029;-96
2023/03/31 02:39:43;;;;;;;4.32;2.90;;;;;;;;;;4881988;29;20040;-96
2023/03/31 02:42:10;;;;;;;5.93;3.05;;;;;;;;;;4867051;29;20037;-94
2023/03/31 02:44:40;;;;;;;6.75;3.30;;;;;;;;;;4867896;29;20105;-96
2023/03/31 02:47:07;;;;;;;8.40;3.60;;;;;;;;;;4866436;29;20034;-95
2023/03/31 02:50:08;;;;;;;7.07;3.67;;;;;;;;;;4864625;29;20048;-96
2023/03/31 02:52:52;;;;;;;5.05;3.40;;;;;;;;;;4842318;29;20033;-96
2023/03/31 02:55:36;;;;;;;5.88;3.67;;;;;;;;;;4877095;29;20044;-95
2023/03/31 02:58:05;;;;;;;;;;;;;;;;;;4865355;29;20092;-95
2023/03/31 03:00:55;;;;;;;8.30;3.78;;;;;;;;;;4865882;29;19923;-96
2023/03/31 03:03:49;;;;;;;7.53;4.40;;;;;;;;;;4866827;29;20053;-95
2023/03/31 03:09:21;;;;;;;8.77;4.35;;;;;;;;;;4879305;29;20043;-96
2023/03/31 03:14:53;;;;;;;7.97;5.30;;;;;;;;;;5301365;23;20085;-93
2023/03/31 03:17:22;;;;;;;10.77;5.95;;;;;;;;;;4873154;29;20662;-96
2023/03/31 03:19:55;;;;;;;9.52;6.30;;;;;;;;;;4880981;29;20033;-95
2023/03/31 03:22:31;;;;;;;12.02;7.03;;;;;;;;;;4865539;29;20124;-96
2023/03/31 03:25:10;;;;;;;13.02;7.35;;;;;;;;;;4867804;29;20064;-94
2023/03/31 03:27:42;;;;;;;15.02;8.70;;;;;;;;;;4880799;29;20031;-94
2023/03/31 03:30:10;;;;;;;12.70;7.80;;;;;;;;;;4874583;29;20040;-94
2023/03/31 03:32:36;;;;;;;12.60;8.43;;;;;;;;;;4866745;29;20028;-93
2023/03/31 03:35:05;;;;;;;13.43;7.30;;;;;;;;;;4866004;29;20029;-95
2023/03/31 03:37:34;;;;;;;10.55;7.13;;;;;;;;;;4866033;29;20025;-96
2023/03/31 03:40:11;;;;;;;12.82;8.70;;;;;;;;;;4866017;29;20520;-96
2023/03/31 03:42:39;;;;;;;15.50;10.07;;;;;;;;;;4866123;29;20075;-95
2023/03/31 03:45:09;;;;;;;14.40;9.30;;;;;;;;;;4865940;29;20025;-95
2023/03/31 03:47:41;;;;;;;12.35;8.05;;;;;;;;;;4866429;29;20116;-95
2023/03/31 03:50:23;;;;;;;13.10;8.57;;;;;;;;;;4869015;29;20040;-95
2023/03/31 03:52:49;;;;;;;13.38;7.60;;;;;;;;;;4866911;29;20033;-95
2023/03/31 03:55:29;;;;;;;10.02;7.20;;;;;;;;;;4865320;29;20029;-95
2023/03/31 03:57:58;;;;;;;15.15;8.55;;;;;;;;;;4865232;29;20116;-95
2023/03/31 04:00:41;;;;;;;;;;;;;;;;;;;;;
2023/03/31 04:03:08;;;;;;;16.10;9.03;;;;;;;;;;4882114;29;20486;-95
2023/03/31 04:05:34;;;;;;;18.00;9.82;;;;;;;;;;4865375;29;20124;-96
2023/03/31 04:08:18;;;;;;;14.68;7.60;;;;;;;;;;4864062;29;20065;-94
2023/03/31 04:10:51;;;;;;;14.85;8.48;;;;;;;;;;4866031;29;20033;-94
2023/03/31 04:13:21;;;;;;;10.55;7.28;;;;;;;;;;4869202;29;20039;-95
2023/03/31 04:15:53;;;;;;;10.88;7.28;;;;;;;;;;4868131;29;20836;-95
2023/03/31 04:18:22;;;;;;;13.15;7.57;;;;;;;;;;4868183;29;20095;-95
2023/03/31 04:24:20;;;;;;;13.07;7.40;;;;;;;;;;4882956;29;20070;-93
2023/03/31 04:26:55;;;;;;;14.50;7.75;;;;;;;;;;4863499;29;20037;-94
2023/03/31 04:29:25;;;;;;;15.80;10.40;;;;;;;;;;4869377;29;20100;-95
2023/03/31 04:31:52;;;;;;;29.13;18.13;;;;;;;;;;4852631;29;20041;-91
2023/03/31 04:34:34;;;;;;;37.15;21.45;;;;;;;;;;4863045;29;20045;-93
2023/03/31 04:37:19;;;;;;;26.42;17.75;;;;;;;;;;4837882;29;20042;-94
2023/03/31 04:39:49;;;;;;;28.85;17.85;;;;;;;;;;4846835;29;20026;-95
2023/03/31 04:42:15;;;;;;;24.75;14.20;;;;;;;;;;4845263;29;20091;-95
2023/03/31 04:44:50;;;;;;;45.53;23.98;;;;;;;;;;4845431;29;20133;-93
2023/03/31 04:47:16;;;;;;;37.92;19.95;;;;;;;;;;4845072;29;20133;-95
2023/03/31 04:49:52;;;;;;;38.97;21.52;;;;;;;;;;4844921;29;20034;-93
2023/03/31 04:52:23;;;;;;;41.58;22.55;;;;;;;;;;4857059;29;20061;-94
2023/03/31 04:57:56;;;;;;;37.67;18.45;;;;;;;;;;4862788;29;20132;-93
2023/03/31 05:00:38;;;;;;;42.88;22.27;;;;;;;;;;4846989;29;20041;-95
2023/03/31 05:03:08;;;;;;;34.05;18.67;;;;;;;;;;4860803;29;20041;-94
2023/03/31 05:09:06;;;;;;;26.48;15.55;;;;;;;;;;4866687;29;20184;-93
2023/03/31 05:11:41;;;;;;;20.73;12.15;;;;;;;;;;4866270;29;20025;-92
2023/03/31 05:14:11;;;;;;;29.30;16.75;;;;;;;;;;4882863;29;20053;-93
2023/03/31 05:16:40;;;;;;;27.80;15.32;;;;;;;;;;4872583;29;20044;-94
2023/03/31 05:19:07;;;;;;;32.60;19.85;;;;;;;;;;4869594;29;20207;-94
2023/03/31 05:21:36;;;;;;;43.35;20.98;;;;;;;;;;4847055;29;20050;-95
2023/03/31 05:24:08;;;;;;;89.93;43.50;;;;;;;;;;4846347;29;20038;-95
2023/03/31 05:26:39;;;;;;;68.53;34.05;;;;;;;;;;4855030;29;20033;-94
2023/03/31 05:29:21;;;;;;;54.05;28.77;;;;;;;;;;4849988;29;20064;-93
2023/03/31 05:31:47;;;;;;;48.60;25.13;;;;;;;;;;4849831;29;20155;-95
2023/03/31 05:34:15;;;;;;;51.80;26.77;;;;;;;;;;4847086;29;20041;-94
2023/03/31 05:36:49;;;;;;;45.35;23.30;;;;;;;;;;4846501;29;20033;-93
2023/03/31 05:39:15;;;;;;;41.90;21.50;;;;;;;;;;4846463;29;20758;-91
2023/03/31 05:41:50;;;;;;;35.15;20.30;;;;;;;;;;4856866;29;20045;-94
2023/03/31 05:44:22;;;;;;;30.83;17.15;;;;;;;;;;4852307;29;20126;-94
2023/03/31 05:49:54;;;;;;;37.20;21.35;;;;;;;;;;5880699;23;20038;-96
2023/03/31 05:55:08;;;;;;;25.27;15.98;;;;;;;;;;5615722;23;20080;-96
2023/03/31 05:57:34;;;;;;;19.67;12.98;;;;;;;;;;4883474;29;20024;-95
2023/03/31 06:00:01;;;;;;;15.50;10.70;;;;;;;;;;4883230;29;20028;-94
2023/03/31 06:02:27;;;;;;;12.93;8.50;;;;;;;;;;4883209;29;20048;-94
2023/03/31 06:05:02;;;;;;;12.13;7.88;;;;;;;;;;4883645;29;20033;-94
2023/03/31 06:07:28;;;;;;;14.00;8.10;;;;;;;;;;4883298;29;20036;-94
2023/03/31 06:09:55;;;;;;;13.07;9.02;;;;;;;;;;4883278;29;20386;-94
2023/03/31 06:12:24;;;;;;;17.15;10.30;;;;;;;;;;4883401;29;20024;-94
2023/03/31 06:14:50;;;;;;;15.95;9.98;;;;;;;;;;4898879;29;20123;-96
2023/03/31 06:17:16;;;;;;;12.25;6.82;;;;;;;;;;4880518;29;20076;-94
2023/03/31 06:19:51;;;;;;;7.60;4.40;;;;;;;;;;4882961;29;20027;-94
2023/03/31 06:22:17;;;;;;;7.78;4.50;;;;;;;;;;4882861;29;20482;-96
2023/03/31 06:24:46;;;;;;;6.30;3.88;;;;;;;;;;4882907;29;20064;-93
2023/03/31 06:27:12;;;;;;;7.03;3.78;;;;;;;;;;4882757;29;20032;-94
2023/03/31 06:29:45;;;;;;;7.00;4.20;;;;;;;;;;4882385;29;20032;-93
2023/03/31 06:32:17;;;;;;;7.20;5.50;;;;;;;;;;4880780;29;20033;-93
2023/03/31 06:34:51;;;;;;;12.27;9.73;;;;;;;;;;4880720;29;20028;-93
2023/03/31 06:37:22;;;;;;;9.95;6.63;;;;;;;;;;4985951;23;20077;-95
2023/03/31 06:39:49;;;;;;;8.25;5.22;;;;;;;;;;4864026;29;20029;-95
2023/03/31 06:42:21;;;;;;;7.78;4.60;;;;;;;;;;4864591;29;20037;-95
2023/03/31 06:44:47;;;;;;;5.33;3.80;;;;;;;;;;4866230;29;20112;-94
2023/03/31 06:47:22;;;;;;;6.85;3.95;;;;;;;;;;4867341;29;20035;-95
2023/03/31 06:49:48;;;;;;;7.15;3.50;;;;;;;;;;4871515;29;20098;-94
2023/03/31 06:52:15;;;;;;;5.32;3.83;;;;;;;;;;4868882;29;20063;-96
2023/03/31 06:54:41;;;;;;;5.00;3.20;;;;;;;;;;4864672;29;20036;-95
2023/03/31 06:57:07;;;;;;;7.75;3.70;;;;;;;;;;4864213;29;20048;-93
2023/03/31 06:59:33;;;;;;;6.28;3.90;;;;;;;;;;4864332;29;20033;-94
2023/03/31 07:02:00;;;;;;;6.70;4.82;;;;;;;;;;4872628;29;20037;-92
2023/03/31 07:04:27;;;;;;;6.50;4.60;;;;;;;;;;4867162;29;20032;-93
2023/03/31 07:06:53;;;;;;;7.15;5.13;;;;;;;;;;4865028;29;20029;-94
2023/03/31 07:09:22;;;;;;;10.30;6.00;;;;;;;;;;4865355;29;20032;-92
2023/03/31 07:12:26;;;;;;;6.95;6.20;;;;;;;;;;4865211;29;20031;-96
2023/03/31 07:14:53;;;;;;;7.75;5.93;;;;;;;;;;4849167;29;20041;-94
2023/03/31 07:17:24;;;;;;;7.55;6.70;;;;;;;;;;4865751;29;20041;-96
2023/03/31 07:19:50;;;;;;;8.52;6.70;;;;;;;;;;4866102;29;20033;-95
2023/03/31 07:22:27;;;;;;;7.97;7.20;;;;;;;;;;4865669;29;20154;-96
2023/03/31 07:24:54;;;;;;;9.15;7.82;;;;;;;;;;4867791;29;20124;-93
2023/03/31 07:27:20;;;;;;;7.82;6.93;;;;;;;;;;4866918;29;20044;-95
2023/03/31 07:29:54;;;;;;;8.13;7.07;;;;;;;;;;4866532;29;20029;-92
2023/03/31 07:32:28;;;;;;;9.57;8.35;;;;;;;;;;4881838;29;20025;-96
2023/03/31 07:34:57;;;;;;;10.13;9.07;;;;;;;;;;4866952;29;20041;-95
2023/03/31 07:37:23;;;;;;;10.40;8.98;;;;;;;;;;4863614;29;20053;-94
2023/03/31 07:39:52;;;;;;;12.95;9.68;;;;;;;;;;4864418;29;20112;-94
2023/03/31 07:42:21;;;;;;;9.48;8.50;;;;;;;;;;4865723;29;20045;-95
2023/03/31 07:44:47;;;;;;;9.63;8.63;;;;;;;;;;4864533;29;20049;-94
2023/03/31 07:47:13;;;;;;;9.25;7.18;;;;;;;;;;4867700;29;20025;-93
2023/03/31 07:49:40;;;;;;;8.13;7.22;;;;;;;;;;4873829;29;20036;-92
2023/03/31 07:52:06;;;;;;;8.50;6.50;;;;;;;;;;4870777;29;20382;-92
2023/03/31 07:54:32;;;;;;;8.50;7.05;;;;;;;;;;4867449;29;20383;-94
2023/03/31 07:57:03;;;;;;;7.63;6.85;;;;;;;;;;4871271;29;20025;-92
2023/03/31 07:59:54;;;;;;;8.40;7.55;;;;;;;;;;4878722;29;20032;-93
2023/03/31 08:02:25;;;;;;;10.02;7.88;;;;;;;;;;4872819;29;20055;-95
2023/03/31 08:04:51;;;;;;;9.80;7.60;;;;;;;;;;4871284;29;20055;-93
2023/03/31 08:07:17;;;;;;;9.77;7.50;;;;;;;;;;4867938;29;20029;-95
2023/03/31 08:09:44;;;;;;;9.32;8.15;;;;;;;;;;4868648;29;20040;-94
2023/03/31 08:12:13;;;;;;;9.00;8.07;;;;;;;;;;4868221;29;20046;-96
2023/03/31 08:14:39;;;;;;;9.63;7.38;;;;;;;;;;4867973;29;20116;-94
2023/03/31 08:17:09;;;;;;;9.18;7.10;;;;;;;;;;4850498;29;20033;-95
2023/03/31 08:20:09;;;;;;;9.70;8.25;;;;;;;;;;4852264;29;20037;-96
2023/03/31 08:22:41;;;;;;;8.70;7.38;;;;;;;;;;4875078;29;20061;-96
2023/03/31 08:25:08;;;;;;;8.90;7.72;;;;;;;;;;4854055;29;20190;-95
2023/03/31 08:27:39;;;;;;;9.82;8.80;;;;;;;;;;4855860;29;20165;-94
2023/03/31 08:30:06;;;;;;;8.80;7.68;;;;;;;;;;4848590;29;20044;-95
2023/03/31 08:32:32;;;;;;;10.27;8.32;;;;;;;;;;4848250;29;20033;-94
2023/03/31 08:38:02;;;;;;;11.97;8.37;;;;;;;;;;4865518;29;20048;-94
2023/03/31 08:43:43;;;;;;;8.70;7.15;;;;;;;;;;4865110;29;20043;-94
2023/03/31 08:46:14;;;;;;;8.15;7.10;;;;;;;;;;4846465;29;20476;-96
2023/03/31 08:48:54;;;;;;;11.20;7.38;;;;;;;;;;4845640;29;20097;-95
2023/03/31 08:51:20;;;;;;;8.65;6.85;;;;;;;;;;4847615;29;20033;-95
2023/03/31 08:53:50;;;;;;;8.55;6.57;;;;;;;;;;4847728;29;20047;-96
2023/03/31 08:56:18;;;;;;;7.13;6.43;;;;;;;;;;4847660;29;20044;-96
2023/03/31 08:58:46;;;;;;;9.43;6.85;;;;;;;;;;4846361;29;20029;-94
2023/03/31 09:01:30;;;;;;;9.75;7.47;;;;;;;;;;4847715;29;20041;-95
2023/03/31 09:04:16;;;;;;;7.50;5.90;;;;;;;;;;4848099;29;20457;-95
2023/03/31 09:06:51;;;;;;;8.80;6.78;;;;;;;;;;4851936;29;20041;-92
2023/03/31 09:09:40;;;;;;;8.50;5.82;;;;;;;;;;4856965;29;20026;-91
2023/03/31 09:12:11;;;;;;;34.08;16.35;;;;;;;;;;4851159;29;20124;-95
2023/03/31 09:14:41;;;;;;;7.93;5.97;;;;;;;;;;4847725;29;20037;-94
2023/03/31 09:17:14;;;;;;;23.25;13.25;;;;;;;;;;4864623;29;20032;-95
2023/03/31 09:19:50;;;;;;;8.90;6.53;;;;;;;;;;4847212;29;20022;-95
2023/03/31 09:22:22;;;;;;;8.95;5.97;;;;;;;;;;4864054;29;20049;-95
2023/03/31 09:24:55;;;;;;;26.75;15.85;;;;;;;;;;4847597;29;20033;-93
2023/03/31 09:27:24;;;;;;;9.95;7.50;;;;;;;;;;4847799;29;20435;-95
2023/03/31 09:30:01;;;;;;;20.73;12.55;;;;;;;;;;4847290;29;20497;-94
2023/03/31 09:32:29;;;;;;;9.30;7.38;;;;;;;;;;4847826;29;20029;-92
2023/03/31 09:35:00;;;;;;;11.82;9.27;;;;;;;;;;4832326;29;20121;-95
2023/03/31 09:37:27;;;;;;;11.27;7.45;;;;;;;;;;4846978;29;20044;-95
2023/03/31 09:39:53;;;;;;;10.50;7.30;;;;;;;;;;4847290;29;20041;-95
2023/03/31 09:42:20;;;;;;;10.40;7.38;;;;;;;;;;4847152;29;20041;-95
2023/03/31 09:44:48;;;;;;;17.35;11.68;;;;;;;;;;4846511;29;20026;-94
2023/03/31 09:47:41;;;;;;;9.80;7.50;;;;;;;;;;4846442;29;20455;-94
2023/03/31 09:50:08;;;;;;;10.50;7.15;;;;;;;;;;4837521;29;20037;-95
2023/03/31 09:52:48;;;;;;;9.82;6.97;;;;;;;;;;4846688;29;20053;-93
2023/03/31 09:55:20;;;;;;;11.05;7.15;;;;;;;;;;4842051;29;20559;-95
2023/03/31 09:57:46;;;;;;;8.77;7.15;;;;;;;;;;4846734;29;20128;-93
2023/03/31 10:00:15;;;;;;;9.73;7.45;;;;;;;;;;4846482;29;20072;-94
2023/03/31 10:02:47;;;;;;;9.18;7.85;;;;;;;;;;4846710;29;20029;-95
2023/03/31 10:05:30;;;;;;;15.32;8.80;;;;;;;;;;4863513;29;20052;-94
2023/03/31 10:08:09;;;;;;;12.15;9.18;;;;;;;;;;4846676;29;20039;-95
2023/03/31 10:10:35;;;;;;;10.90;8.10;;;;;;;;;;4848616;29;20032;-93
2023/03/31 10:13:15;;;;;;;11.50;8.45;;;;;;;;;;4866846;29;20044;-96
2023/03/31 10:15:43;;;;;;;10.57;7.97;;;;;;;;;;4856206;29;20057;-94
2023/03/31 10:18:17;;;;;;;12.00;8.00;;;;;;;;;;4859037;29;20033;-92
2023/03/31 10:20:45;;;;;;;9.45;7.57;;;;;;;;;;4925412;23;20076;-94
2023/03/31 10:23:46;;;;;;;12.13;7.13;;;;;;;;;;4889552;29;20156;-94
2023/03/31 10:26:16;;;;;;;10.23;7.28;;;;;;;;;;4867807;29;20045;-94
2023/03/31 10:28:43;;;;;;;9.57;7.65;;;;;;;;;;4879131;29;20025;-93
2023/03/31 10:31:10;;;;;;;14.57;7.85;;;;;;;;;;4879674;29;20089;-94
2023/03/31 10:33:40;;;;;;;9.32;7.47;;;;;;;;;;4880171;29;20090;-96
2023/03/31 10:36:08;;;;;;;7.75;6.85;;;;;;;;;;4879990;29;20029;-93
2023/03/31 10:38:38;;;;;;;8.95;7.32;;;;;;;;;;4923500;23;20067;-95
2023/03/31 10:41:19;;;;;;;9.07;6.47;;;;;;;;;;4878328;29;20384;-95
2023/03/31 10:43:50;;;;;;;12.82;6.85;;;;;;;;;;4861512;29;20021;-94
2023/03/31 10:46:17;;;;;;;9.27;6.35;;;;;;;;;;4861935;29;20033;-93
2023/03/31 10:48:54;;;;;;;7.07;6.20;;;;;;;;;;4861860;29;20034;-96
2023/03/31 11:00:00;;;;;;;9.23;6.68;;;;;;;;;;4878319;29;20060;-95
2023/03/31 11:12:00;;;;;;;9.77;7.70;;;;;;;;;;4904488;29;20088;-93
2023/03/31 11:14:29;;;;;;;9.13;7.65;;;;;;;;;;4889656;29;20024;-96
2023/03/31 11:17:15;;;;;;;8.02;7.22;;;;;;;;;;4889732;29;20033;-96
2023/03/31 11:19:53;;;;;;;8.18;7.38;;;;;;;;;;4889567;29;20041;-94
2023/03/31 11:22:37;;;;;;;9.98;7.78;;;;;;;;;;4900701;29;20040;-93
2023/03/31 11:25:25;;;;;;;11.65;8.10;;;;;;;;;;4885009;29;20037;-94
2023/03/31 11:28:25;;;;;;;9.27;8.27;;;;;;;;;;4888623;29;20032;-91
2023/03/31 11:31:06;;;;;;;11.93;8.40;;;;;;;;;;4843247;29;20047;-92
2023/03/31 11:33:56;;;;;;;9.43;8.02;;;;;;;;;;4887212;29;20040;-93
2023/03/31 11:45:17;;;;;;;12.77;9.30;;;;;;;;;;4927528;23;20060;-95
2023/03/31 11:47:46;;;;;;;10.65;8.90;;;;;;;;;;4865131;29;20459;-92
2023/03/31 11:50:16;;;;;;;13.95;9.32;;;;;;;;;;4865244;29;20473;-92
2023/03/31 11:53:03;;;;;;;11.27;9.85;;;;;;;;;;4865212;29;20069;-94
2023/03/31 11:55:31;;;;;;;9.73;8.50;;;;;;;;;;4869878;29;20085;-93
2023/03/31 11:57:58;;;;;;;9.25;8.25;;;;;;;;;;4867840;29;20030;-96
2023/03/31 12:00:39;;;;;;;8.85;7.93;;;;;;;;;;4883615;29;20188;-93
2023/03/31 12:03:18;;;;;;;10.75;9.35;;;;;;;;;;4866129;29;20041;-96
2023/03/31 12:06:04;;;;;;;10.15;7.90;;;;;;;;;;4865307;29;20025;-93
2023/03/31 12:08:46;;;;;;;10.80;8.00;;;;;;;;;;4866397;29;20037;-92
2023/03/31 12:11:21;;;;;;;9.35;8.23;;;;;;;;;;4864510;29;20037;-94
2023/03/31 12:14:06;;;;;;;10.45;7.93;;;;;;;;;;4863624;29;20248;-95
2023/03/31 12:16:42;;;;;;;8.82;7.72;;;;;;;;;;4863661;29;20074;-93
2023/03/31 12:22:14;;;;;;;9.45;8.30;;;;;;;;;;4851975;29;20060;-94
2023/03/31 12:24:40;;;;;;;9.60;8.45;;;;;;;;;;4864561;29;20033;-94
2023/03/31 12:27:18;;;;;;;9.98;8.82;;;;;;;;;;4866072;29;20052;-91
2023/03/31 12:29:58;;;;;;;11.85;9.30;;;;;;;;;;4868180;29;20032;-91
2023/03/31 12:32:27;;;;;;;9.65;8.65;;;;;;;;;;4870246;29;20132;-91
2023/03/31 12:35:05;;;;;;;10.85;9.75;;;;;;;;;;4871672;29;20017;-93
2023/03/31 12:37:31;;;;;;;10.73;9.48;;;;;;;;;;4870649;29;20035;-94
2023/03/31 12:40:08;;;;;;;9.43;8.43;;;;;;;;;;4877689;29;20036;-91
2023/03/31 12:42:48;;;;;;;10.07;8.50;;;;;;;;;;4870410;29;20048;-92
2023/03/31 12:45:38;;;;;;;10.52;8.77;;;;;;;;;;4870809;29;20129;-96
2023/03/31 12:48:22;;;;;;;11.70;9.20;;;;;;;;;;4869895;29;20036;-95
2023/03/31 12:51:08;;;;;;;9.20;7.95;;;;;;;;;;4870867;29;20021;-96
2023/03/31 12:53:53;;;;;;;10.32;7.78;;;;;;;;;;4873025;29;20378;-95
2023/03/31 12:59:32;;;;;;;10.15;7.78;;;;;;;;;;4881214;29;20178;-96
2023/03/31 13:02:08;;;;;;;8.60;5.63;;;;;;;;;;4893693;29;20033;-95
2023/03/31 13:04:57;;;;;;;5.05;3.60;;;;;;;;;;4875963;29;20033;-95
2023/03/31 13:07:43;;;;;;;3.78;3.20;;;;;;;;;;4891763;29;20403;-96
2023/03/31 13:10:41;;;;;;;6.38;1.98;;;;;;;;;;4874154;29;20029;-96
2023/03/31 13:13:15;;;;;;;4.55;2.13;;;;;;;;;;4870474;29;20058;-93
2023/03/31 13:15:50;;;;;;;3.40;2.15;;;;;;;;;;4867599;29;20025;-96
2023/03/31 13:18:23;;;;;;;3.42;2.03;;;;;;;;;;4881025;29;20025;-96
2023/03/31 13:21:00;;;;;;;3.58;2.10;;;;;;;;;;4852685;29;20387;-96
2023/03/31 13:23:46;;;;;;;2.88;1.92;;;;;;;;;;4866451;29;20115;-96
2023/03/31 13:26:46;;;;;;;2.83;2.00;;;;;;;;;;4868636;29;20045;-95
2023/03/31 13:29:18;;;;;;;3.67;2.10;;;;;;;;;;4850796;29;20131;-95
2023/03/31 13:41:03;;;;;;;5.03;2.30;;;;;;;;;;4912663;29;20711;-94
2023/03/31 13:46:50;;;;;;;3.38;2.22;;;;;;;;;;4908433;29;20103;-94
2023/03/31 13:49:39;;;;;;;4.68;2.50;;;;;;;;;;4915303;29;20029;-91
2023/03/31 13:52:34;;;;;;;4.18;2.20;;;;;;;;;;4965752;23;20054;-92
2023/03/31 13:55:20;;;;;;;3.88;2.17;;;;;;;;;;5116214;23;20041;-91
2023/03/31 13:58:08;;;;;;;3.30;2.60;;;;;;;;;;4871256;29;20017;-96
2023/03/31 14:33:02;;;;;;;4.00;2.53;;;;;;;;;;5252100;23;20040;-95
2023/03/31 14:41:32;;;;;;;5.55;2.65;;;;;;;;;;5339383;23;20286;-93
2023/03/31 14:44:05;;;;;;;4.80;2.97;;;;;;;;;;4874846;29;20061;-95
2023/03/31 14:46:56;;;;;;;4.60;2.40;;;;;;;;;;4859544;29;20037;-95
2023/03/31 14:49:46;;;;;;;5.63;2.97;;;;;;;;;;4870785;29;20141;-95
2023/03/31 14:52:19;;;;;;;3.88;2.70;;;;;;;;;;4875448;29;20145;-94
2023/03/31 14:55:04;;;;;;;6.55;2.67;;;;;;;;;;4872008;29;20108;-93
2023/03/31 14:57:37;;;;;;;3.40;2.50;;;;;;;;;;4870586;29;20110;-93
2023/03/31 15:00:05;;;;;;;;;;;;;;;;;;4878198;29;20025;-93
2023/03/31 15:02:38;;;;;;;6.13;3.00;;;;;;;;;;4901405;29;19911;-93
2023/03/31 15:05:44;;;;;;;4.03;2.95;;;;;;;;;;5049197;23;20066;-96
2023/03/31 15:08:28;;;;;;;6.57;3.10;;;;;;;;;;4877627;29;20053;-93
2023/03/31 15:10:54;;;;;;;;;;;;;;;;;;4878529;29;20030;-94
2023/03/31 15:13:41;;;;;;;6.97;3.08;;;;;;;;;;4873781;29;19960;-95
2023/03/31 15:16:28;;;;;;;5.65;2.90;;;;;;;;;;4869391;29;20563;-93
2023/03/31 15:18:54;;;;;;;6.45;2.95;;;;;;;;;;4866256;29;20057;-94
2023/03/31 15:21:21;;;;;;;6.07;2.85;;;;;;;;;;4855834;29;20049;-92
2023/03/31 15:23:51;;;;;;;6.72;3.55;;;;;;;;;;4873647;29;20044;-93
2023/03/31 15:26:22;;;;;;;5.28;3.00;;;;;;;;;;4870425;29;20037;-94
2023/03/31 15:28:54;;;;;;;5.28;3.13;;;;;;;;;;4851864;29;20041;-93
2023/03/31 15:31:27;;;;;;;6.28;2.83;;;;;;;;;;4864978;29;20029;-93
2023/03/31 15:33:57;;;;;;;4.20;2.80;;;;;;;;;;4867187;29;20033;-94
2023/03/31 15:36:24;;;;;;;5.43;2.90;;;;;;;;;;4865590;29;20025;-94
2023/03/31 15:39:25;;;;;;;6.40;2.97;;;;;;;;;;4866193;29;20038;-94
2023/03/31 15:41:52;;;;;;;8.02;2.83;;;;;;;;;;4864516;29;20069;-93
2023/03/31 15:44:30;;;;;;;4.53;3.08;;;;;;;;;;4863366;29;20034;-95
2023/03/31 15:47:20;;;;;;;4.63;3.00;;;;;;;;;;4865337;29;20037;-94
2023/03/31 15:49:57;;;;;;;4.90;3.00;;;;;;;;;;4849803;29;20038;-95
2023/03/31 15:52:32;;;;;;;4.63;2.72;;;;;;;;;;4873028;29;20034;-95
2023/03/31 15:55:00;;;;;;;6.40;3.08;;;;;;;;;;4870113;29;20053;-93
2023/03/31 15:57:34;;;;;;;4.38;2.90;;;;;;;;;;4863058;29;20034;-93
2023/03/31 16:00:28;;;;;;;5.40;3.10;;;;;;;;;;4869695;29;20483;-96
2023/03/31 16:09:23;;;;;;;4.57;3.05;;;;;;;;;;5976227;23;20043;31
2023/03/31 16:12:00;;;;;;;4.93;2.95;;;;;;;;;;4878077;29;20041;-91
2023/03/31 16:14:37;;;;;;;7.18;2.17;;;;;;;;;;4876726;29;20056;-93
2023/03/31 16:17:10;;;;;;;3.80;1.30;;;;;;;;;;4866127;29;20030;-95
2023/03/31 16:19:49;;;;;;;2.47;1.05;;;;;;;;;;5005672;23;20061;-93
2023/03/31 16:22:39;;;;;;;3.65;1.30;;;;;;;;;;5181682;23;20077;-93
2023/03/31 16:25:44;;;;;;;3.65;1.50;;;;;;;;;;4885763;29;20037;-95
2023/03/31 16:28:16;;;;;;;3.30;1.95;;;;;;;;;;4831944;29;20539;-94
2023/03/31 16:31:00;;;;;;;4.80;1.48;;;;;;;;;;4845937;29;20034;-95
2023/03/31 16:33:33;;;;;;;7.55;1.83;;;;;;;;;;4869506;29;20037;-94
2023/03/31 16:36:07;;;;;;;5.60;1.50;;;;;;;;;;4882697;29;20029;-93
2023/03/31 16:38:33;;;;;;;5.18;1.50;;;;;;;;;;4892338;29;20033;-93
2023/03/31 16:41:00;;;;;;;3.97;1.38;;;;;;;;;;4883393;29;20033;-93
2023/03/31 16:43:33;;;;;;;5.18;1.55;;;;;;;;;;4882695;29;20037;-93
2023/03/31 16:46:04;;;;;;;4.82;1.13;;;;;;;;;;4882454;29;20037;-94
2023/03/31 16:48:34;;;;;;;5.70;1.05;;;;;;;;;;4895363;29;20025;-92
2023/03/31 16:51:16;;;;;;;5.57;0.90;;;;;;;;;;4897512;29;20049;-94
2023/03/31 16:53:43;;;;;;;5.63;1.00;;;;;;;;;;4875302;29;20033;-92
2023/03/31 16:59:19;;;;;;;4.15;1.15;;;;;;;;;;4884654;29;20416;-95
2023/03/31 17:01:45;;;;;;;5.53;1.30;;;;;;;;;;4870373;29;20040;-93
2023/03/31 17:04:14;;;;;;;4.03;1.30;;;;;;;;;;4872035;29;20025;-94
2023/03/31 17:06:41;;;;;;;3.40;1.10;;;;;;;;;;4868815;29;20044;-92
2023/03/31 17:09:08;;;;;;;3.97;1.08;;;;;;;;;;4883343;29;20426;-93
2023/03/31 17:11:37;;;;;;;3.65;1.17;;;;;;;;;;4868899;29;20498;-94
2023/03/31 17:19:18;;;;;;;3.92;1.35;;;;;;;;;;5216690;23;20054;-92
2023/03/31 17:29:40;;;;;;;4.07;1.20;;;;;;;;;;4965151;23;19963;-95
2023/03/31 17:35:06;;;;;;;5.32;1.30;;;;;;;;;;5005504;23;20065;-94
2023/03/31 17:37:38;;;;;;;3.65;1.00;;;;;;;;;;4881460;29;20034;-96
2023/03/31 17:40:16;;;;;;;3.22;1.10;;;;;;;;;;4868437;29;20041;-96
2023/03/31 17:42:43;;;;;;;3.28;1.48;;;;;;;;;;4872494;29;20394;-94
2023/03/31 17:45:16;;;;;;;4.13;1.25;;;;;;;;;;4888838;29;20107;-94
2023/03/31 17:47:45;;;;;;;3.00;1.00;;;;;;;;;;4868689;29;20044;-95
2023/03/31 17:50:24;;;;;;;6.10;3.13;;;;;;;;;;4867203;29;20061;-96
2023/03/31 17:52:54;;;;;;;3.55;1.85;;;;;;;;;;4886833;29;20124;-94
2023/03/31 17:55:23;;;;;;;3.20;1.13;;;;;;;;;;4863836;29;20041;-94
2023/03/31 17:58:07;;;;;;;2.20;1.42;;;;;;;;;;4866547;29;20441;-93
2023/03/31 18:03:21;;;;;;;3.75;1.73;;;;;;;;;;4873873;29;20014;-93
2023/03/31 18:05:51;;;;;;;2.17;1.30;;;;;;;;;;4864867;29;20034;-92